createdAt,value
2024-02-16T00:02:04.591Z,1.66
2024-02-16T00:04:32.809Z,1.69
2024-02-16T00:07:00.821Z,1.71
2024-02-16T00:09:29.396Z,1.67
2024-02-16T00:11:58.753Z,1.67
2024-02-16T00:14:26.752Z,1.69
2024-02-16T00:16:54.732Z,1.72
2024-02-16T00:19:23.458Z,1.72
2024-02-16T00:21:53.123Z,1.74
2024-02-16T00:24:21.840Z,1.70
2024-02-16T00:26:50.853Z,1.71
2024-02-16T00:29:20.255Z,1.77
2024-02-16T00:31:48.105Z,1.75
2024-02-16T00:34:17.320Z,1.71
2024-02-16T00:36:45.556Z,1.77
2024-02-16T00:39:13.607Z,1.71
2024-02-16T00:41:41.625Z,1.75
2024-02-16T00:44:09.901Z,1.78
2024-02-16T00:46:40.914Z,1.76
2024-02-16T00:49:11.553Z,1.75
2024-02-16T00:51:42.551Z,1.73
2024-02-16T00:54:11.998Z,1.85
2024-02-16T00:56:40.051Z,1.85
2024-02-16T00:59:10.141Z,1.84
2024-02-16T01:01:38.454Z,1.83
2024-02-16T01:04:09.387Z,1.82
2024-02-16T01:06:37.365Z,1.87
2024-02-16T01:09:05.609Z,1.84
2024-02-16T01:11:33.465Z,1.81
2024-02-16T01:14:01.509Z,1.78
2024-02-16T01:16:29.828Z,1.80
2024-02-16T01:18:57.951Z,1.78
2024-02-16T01:21:27.936Z,1.77
2024-02-16T01:23:55.987Z,1.83
2024-02-16T01:26:23.960Z,1.81
2024-02-16T01:28:51.827Z,1.87
2024-02-16T01:31:19.692Z,1.84
2024-02-16T01:33:48.306Z,1.81
2024-02-16T01:36:16.249Z,1.79
2024-02-16T01:38:46.063Z,1.83
2024-02-16T01:41:16.287Z,1.84
2024-02-16T01:43:44.233Z,1.85
2024-02-16T01:46:12.203Z,1.85
2024-02-16T01:48:41.587Z,1.88
2024-02-16T01:51:12.014Z,1.86
2024-02-16T01:53:41.072Z,1.86
2024-02-16T01:56:11.080Z,1.93
2024-02-16T01:58:39.090Z,1.94
2024-02-16T02:01:08.259Z,1.82
2024-02-16T02:03:37.232Z,1.92
2024-02-16T02:06:05.313Z,1.94
2024-02-16T02:08:33.689Z,1.96
2024-02-16T02:11:01.668Z,1.97
2024-02-16T02:13:31.276Z,1.95
2024-02-16T02:16:00.888Z,1.97
2024-02-16T02:18:28.937Z,1.94
2024-02-16T02:20:56.946Z,1.94
2024-02-16T02:23:26.422Z,1.96
2024-02-16T02:25:54.568Z,1.92
2024-02-16T02:28:25.019Z,1.62
2024-02-16T02:30:54.734Z,1.98
2024-02-16T02:33:24.016Z,1.98
2024-02-16T02:35:52.462Z,1.95
2024-02-16T02:38:20.674Z,2.02
2024-02-16T02:40:49.876Z,2.00
2024-02-16T02:43:19.901Z,2.02
2024-02-16T02:45:47.831Z,1.99
2024-02-16T02:48:15.908Z,1.94
2024-02-16T02:50:44.548Z,1.97
2024-02-16T02:53:13.256Z,2.00
2024-02-16T02:55:41.063Z,1.86
2024-02-16T02:58:10.363Z,1.99
2024-02-16T03:00:38.441Z,1.99
2024-02-16T03:03:06.480Z,2.00
2024-02-16T03:05:34.425Z,2.03
2024-02-16T03:08:03.105Z,2.07
2024-02-16T03:10:36.171Z,2.08
2024-02-16T03:13:05.056Z,2.06
2024-02-16T03:15:34.652Z,2.07
2024-02-16T03:18:02.940Z,2.03
2024-02-16T03:20:31.897Z,2.05
2024-02-16T03:22:59.720Z,2.08
2024-02-16T03:25:27.726Z,2.00
2024-02-16T03:27:55.728Z,2.04
2024-02-16T03:30:23.974Z,2.04
2024-02-16T03:32:53.643Z,2.05
2024-02-16T03:35:21.561Z,2.11
2024-02-16T03:37:49.440Z,2.07
2024-02-16T03:40:18.099Z,2.11
2024-02-16T03:42:45.937Z,2.07
2024-02-16T03:45:13.892Z,2.09
2024-02-16T03:47:43.060Z,2.07
2024-02-16T03:50:15.755Z,2.09
2024-02-16T03:52:43.668Z,2.11
2024-02-16T03:55:11.463Z,2.17
2024-02-16T03:57:39.517Z,2.14
2024-02-16T04:00:09.434Z,2.15
2024-02-16T04:02:37.979Z,2.11
2024-02-16T04:05:06.264Z,2.16
2024-02-16T04:07:35.595Z,2.15
2024-02-16T04:10:03.510Z,2.13
2024-02-16T04:12:31.639Z,2.17
2024-02-16T04:14:59.778Z,2.15
2024-02-16T04:17:27.649Z,2.17
2024-02-16T04:19:55.609Z,2.17
2024-02-16T04:22:23.485Z,2.17
2024-02-16T04:24:52.687Z,2.20
2024-02-16T04:27:20.568Z,2.17
2024-02-16T04:29:48.429Z,2.25
2024-02-16T04:32:16.234Z,2.24
2024-02-16T04:34:44.138Z,2.19
2024-02-16T04:37:12.016Z,2.23
2024-02-16T04:39:40.425Z,2.24
2024-02-16T04:42:09.620Z,2.28
2024-02-16T04:44:39.646Z,2.25
2024-02-16T04:47:07.891Z,2.30
2024-02-16T04:49:35.819Z,2.36
2024-02-16T04:52:03.802Z,2.32
2024-02-16T04:54:32.045Z,2.35
2024-02-16T04:56:59.919Z,2.30
2024-02-16T04:59:29.159Z,2.32
2024-02-16T05:01:57.383Z,2.35
2024-02-16T05:04:25.206Z,2.37
2024-02-16T05:06:58.556Z,2.41
2024-02-16T05:09:27.772Z,2.36
2024-02-16T05:11:55.905Z,2.35
2024-02-16T05:14:25.124Z,2.37
2024-02-16T05:16:55.981Z,2.36
2024-02-16T05:19:25.201Z,2.37
2024-02-16T05:21:53.004Z,2.41
2024-02-16T05:24:21.734Z,2.38
2024-02-16T05:26:49.643Z,2.43
2024-02-16T05:29:17.456Z,2.41
2024-02-16T05:31:45.243Z,2.41
2024-02-16T05:34:15.116Z,2.44
2024-02-16T05:36:43.108Z,2.40
2024-02-16T05:39:22.055Z,2.41
2024-02-16T05:41:50.503Z,2.46
2024-02-16T05:44:18.341Z,2.45
2024-02-16T05:46:46.897Z,2.37
2024-02-16T05:49:16.266Z,2.45
2024-02-16T05:52:01.209Z,2.45
2024-02-16T05:54:29.324Z,2.42
2024-02-16T05:56:57.269Z,2.38
2024-02-16T05:59:26.248Z,2.42
2024-02-16T06:01:54.093Z,2.45
2024-02-16T06:04:23.308Z,2.45
2024-02-16T06:06:51.417Z,2.40
2024-02-16T06:09:19.307Z,2.36
2024-02-16T06:11:47.464Z,2.40
2024-02-16T06:14:19.488Z,2.32
2024-02-16T06:16:48.343Z,2.36
2024-02-16T06:19:16.651Z,2.31
2024-02-16T06:21:45.871Z,2.35
2024-02-16T06:24:13.700Z,2.33
2024-02-16T06:26:42.976Z,2.27
2024-02-16T06:29:11.080Z,2.30
2024-02-16T06:31:38.877Z,2.32
2024-02-16T06:34:06.770Z,2.37
2024-02-16T06:36:34.767Z,2.43
2024-02-16T06:39:04.263Z,2.40
2024-02-16T06:41:32.209Z,2.34
2024-02-16T06:44:00.001Z,2.36
2024-02-16T06:46:28.682Z,2.34
2024-02-16T06:48:57.635Z,2.37
2024-02-16T06:51:25.819Z,2.35
2024-02-16T06:53:53.644Z,2.41
2024-02-16T06:56:23.375Z,2.42
2024-02-16T06:58:51.216Z,2.48
2024-02-16T07:01:19.542Z,2.46
2024-02-16T07:03:47.754Z,2.45
2024-02-16T07:06:15.795Z,2.54
2024-02-16T07:08:44.382Z,2.55
2024-02-16T07:11:14.063Z,2.52
2024-02-16T07:13:44.636Z,2.54
2024-02-16T07:16:12.462Z,2.55
2024-02-16T07:18:40.457Z,2.63
2024-02-16T07:21:08.493Z,2.61
2024-02-16T07:23:36.338Z,2.61
2024-02-16T07:26:07.203Z,2.66
2024-02-16T07:28:36.371Z,2.72
2024-02-16T07:31:06.010Z,2.72
2024-02-16T07:33:33.976Z,2.76
2024-02-16T07:36:01.905Z,2.83
2024-02-16T07:38:30.025Z,2.90
2024-02-16T07:40:57.926Z,2.93
2024-02-16T07:43:26.170Z,3.08
2024-02-16T07:45:55.123Z,3.10
2024-02-16T07:48:24.980Z,3.11
2024-02-16T07:50:53.006Z,3.01
2024-02-16T07:53:20.931Z,3.27
2024-02-16T07:55:48.730Z,3.22
2024-02-16T07:58:16.539Z,3.33
2024-02-16T08:00:44.495Z,3.40
2024-02-16T08:03:12.473Z,3.48
2024-02-16T08:05:41.696Z,3.52
2024-02-16T08:08:09.522Z,3.53
2024-02-16T08:10:37.538Z,3.59
2024-02-16T08:13:05.913Z,3.66
2024-02-16T08:15:33.930Z,3.72
2024-02-16T08:18:02.071Z,3.74
2024-02-16T08:20:30.009Z,3.72
2024-02-16T08:23:00.536Z,3.78
2024-02-16T08:25:29.208Z,3.76
2024-02-16T08:27:56.998Z,3.79
2024-02-16T08:30:26.217Z,3.84
2024-02-16T08:32:55.210Z,3.97
2024-02-16T08:35:23.915Z,3.97
2024-02-16T08:37:52.069Z,4.01
2024-02-16T08:40:21.320Z,4.02
2024-02-16T08:42:49.276Z,4.07
2024-02-16T08:45:18.731Z,4.13
2024-02-16T08:47:48.786Z,4.07
2024-02-16T08:50:18.604Z,4.20
2024-02-16T08:52:46.645Z,4.25
2024-02-16T08:55:14.646Z,4.26
2024-02-16T08:57:44.122Z,4.31
2024-02-16T09:00:13.264Z,4.40
2024-02-16T09:02:41.156Z,4.34
2024-02-16T09:05:10.921Z,4.41
2024-02-16T09:07:39.674Z,4.41
2024-02-16T09:10:09.131Z,4.49
2024-02-16T09:12:37.180Z,4.51
2024-02-16T09:15:07.176Z,4.56
2024-02-16T09:17:35.070Z,4.56
2024-02-16T09:20:05.495Z,4.61
2024-02-16T09:25:04.302Z,4.70
2024-02-16T09:27:32.883Z,4.74
2024-02-16T09:30:00.931Z,4.73
2024-02-16T09:32:30.136Z,4.77
2024-02-16T09:34:58.285Z,4.80
2024-02-16T09:37:26.245Z,4.75
2024-02-16T09:39:55.494Z,4.79
2024-02-16T09:42:27.315Z,4.80
2024-02-16T09:44:56.683Z,4.85
2024-02-16T09:47:26.000Z,4.90
2024-02-16T09:49:55.464Z,4.93
2024-02-16T09:52:24.439Z,5.02
2024-02-16T09:54:52.282Z,5.03
2024-02-16T09:57:20.524Z,5.04
2024-02-16T09:59:48.338Z,5.17
2024-02-16T10:02:16.162Z,5.19
2024-02-16T10:04:44.030Z,5.23
2024-02-16T10:07:14.656Z,5.29
2024-02-16T10:09:43.507Z,5.32
2024-02-16T10:12:12.228Z,5.45
2024-02-16T10:14:42.251Z,5.49
2024-02-16T10:17:10.817Z,5.54
2024-02-16T10:19:41.976Z,5.57
2024-02-16T10:22:11.720Z,5.57
2024-02-16T10:24:41.596Z,5.57
2024-02-16T10:27:17.143Z,5.53
2024-02-16T10:29:46.449Z,5.55
2024-02-16T10:32:14.808Z,5.52
2024-02-16T10:34:43.603Z,5.49
2024-02-16T10:37:12.343Z,5.48
2024-02-16T10:39:43.443Z,5.45
2024-02-16T10:42:12.618Z,5.42
2024-02-16T10:44:43.709Z,5.42
2024-02-16T10:47:11.699Z,5.42
2024-02-16T10:49:40.054Z,5.40
2024-02-16T10:52:09.348Z,5.43
2024-02-16T10:54:38.960Z,5.40
2024-02-16T10:57:11.714Z,5.40
2024-02-16T10:59:47.419Z,5.33
2024-02-16T11:02:16.215Z,5.33
2024-02-16T11:04:47.997Z,5.33
2024-02-16T11:07:19.093Z,5.37
2024-02-16T11:09:49.054Z,5.39
2024-02-16T11:12:18.440Z,5.37
2024-02-16T11:14:48.392Z,5.41
2024-02-16T11:17:17.446Z,5.45
2024-02-16T11:19:47.001Z,5.45
2024-02-16T11:22:18.510Z,5.42
2024-02-16T11:24:47.954Z,5.49
2024-02-16T11:27:20.632Z,5.54
2024-02-16T11:29:51.484Z,5.56
2024-02-16T11:32:21.540Z,5.54
2024-02-16T11:34:50.141Z,5.56
2024-02-16T11:37:18.546Z,5.56
2024-02-16T11:39:48.176Z,5.58
2024-02-16T11:42:21.901Z,5.57
2024-02-16T11:44:56.899Z,5.59
2024-02-16T11:47:29.005Z,5.61
2024-02-16T11:50:05.962Z,5.59
2024-02-16T11:52:34.284Z,5.66
2024-02-16T11:55:04.868Z,5.67
2024-02-16T11:57:33.417Z,5.61
2024-02-16T12:00:05.269Z,5.65
2024-02-16T12:02:33.090Z,5.65
2024-02-16T12:05:03.930Z,5.63
2024-02-16T12:07:34.424Z,5.59
2024-02-16T12:10:06.149Z,5.65
2024-02-16T12:12:34.861Z,5.60
2024-02-16T12:15:04.790Z,5.67
2024-02-16T12:17:32.696Z,5.69
2024-02-16T12:20:01.061Z,5.68
2024-02-16T12:22:29.166Z,5.70
2024-02-16T12:24:58.025Z,5.70
2024-02-16T12:27:26.992Z,5.72
2024-02-16T12:29:54.898Z,5.74
2024-02-16T12:32:24.118Z,5.82
2024-02-16T12:34:52.184Z,5.80
2024-02-16T12:37:20.213Z,5.81
2024-02-16T12:39:49.114Z,5.85
2024-02-16T12:42:17.140Z,5.91
2024-02-16T12:44:45.028Z,5.88
2024-02-16T12:47:12.817Z,5.92
2024-02-16T12:49:42.138Z,5.93
2024-02-16T12:52:10.104Z,5.92
2024-02-16T12:54:37.910Z,5.84
2024-02-16T12:57:05.794Z,5.79
2024-02-16T12:59:33.655Z,5.85
2024-02-16T13:02:03.791Z,5.86
2024-02-16T13:04:33.744Z,5.86
2024-02-16T13:07:03.123Z,5.87
2024-02-16T13:09:31.555Z,5.84
2024-02-16T13:11:59.825Z,5.74
2024-02-16T13:14:28.365Z,5.72
2024-02-16T13:16:56.235Z,5.70
2024-02-16T13:19:25.242Z,5.68
2024-02-16T13:21:54.061Z,5.69
2024-02-16T13:24:23.361Z,5.73
2024-02-16T13:26:51.428Z,5.71
2024-02-16T13:29:19.281Z,5.74
2024-02-16T13:31:47.238Z,5.76
2024-02-16T13:34:15.981Z,5.83
2024-02-16T13:36:44.041Z,5.85
2024-02-16T13:39:12.917Z,5.83
2024-02-16T13:41:42.242Z,5.80
2024-02-16T13:44:10.078Z,5.78
2024-02-16T13:46:37.893Z,5.81
2024-02-16T13:49:06.069Z,5.81
2024-02-16T13:51:34.339Z,5.79
2024-02-16T13:54:02.271Z,5.79
2024-02-16T13:56:30.037Z,5.76
2024-02-16T13:58:59.218Z,5.80
2024-02-16T14:01:27.256Z,5.77
2024-02-16T14:03:55.218Z,5.74
2024-02-16T14:06:23.320Z,5.73
2024-02-16T14:08:54.924Z,5.73
2024-02-16T14:11:23.536Z,5.71
2024-02-16T14:13:51.807Z,5.74
2024-02-16T14:16:21.008Z,5.76
2024-02-16T14:18:50.348Z,5.75
2024-02-16T14:21:18.284Z,5.78
2024-02-16T14:23:46.761Z,5.79
2024-02-16T14:26:14.564Z,5.79
2024-02-16T14:28:42.986Z,5.77
2024-02-16T14:31:11.153Z,5.76
2024-02-16T14:33:40.617Z,5.79
2024-02-16T14:36:10.644Z,5.77
2024-02-16T14:38:38.447Z,5.79
2024-02-16T14:41:06.875Z,5.83
2024-02-16T14:43:34.965Z,5.81
2024-02-16T14:46:05.364Z,5.86
2024-02-16T14:48:33.797Z,5.83
2024-02-16T14:51:03.657Z,5.80
2024-02-16T14:53:34.062Z,5.83
2024-02-16T14:56:02.397Z,5.80
2024-02-16T14:58:30.218Z,5.84
2024-02-16T15:00:58.345Z,5.88
2024-02-16T15:03:28.300Z,5.93
2024-02-16T15:05:56.200Z,5.97
2024-02-16T15:08:25.492Z,6.04
2024-02-16T15:10:53.412Z,6.07
2024-02-16T15:13:21.228Z,6.07
2024-02-16T15:15:49.177Z,6.08
2024-02-16T15:18:17.162Z,6.06
2024-02-16T15:20:45.273Z,5.98
2024-02-16T15:23:13.091Z,6.10
2024-02-16T15:25:42.218Z,6.09
2024-02-16T15:28:10.047Z,6.10
2024-02-16T15:30:38.098Z,6.07
2024-02-16T15:33:06.781Z,6.07
2024-02-16T15:35:34.970Z,6.07
2024-02-16T15:38:02.978Z,6.09
2024-02-16T15:40:30.795Z,6.12
2024-02-16T15:43:03.889Z,6.14
2024-02-16T15:45:32.156Z,6.08
2024-02-16T15:48:00.462Z,6.07
2024-02-16T15:50:31.407Z,6.05
2024-02-16T15:52:59.425Z,6.02
2024-02-16T15:55:27.287Z,6.08
2024-02-16T15:57:55.196Z,6.04
2024-02-16T16:00:25.378Z,6.10
2024-02-16T16:02:53.361Z,6.10
2024-02-16T16:05:21.204Z,6.08
2024-02-16T16:07:49.532Z,6.08
2024-02-16T16:10:18.547Z,6.09
2024-02-16T16:12:46.960Z,6.06
2024-02-16T16:15:15.252Z,6.08
2024-02-16T16:17:44.836Z,6.08
2024-02-16T16:20:14.420Z,6.09
2024-02-16T16:22:42.422Z,6.11
2024-02-16T16:25:10.766Z,6.24
2024-02-16T16:27:38.704Z,6.26
2024-02-16T16:30:09.318Z,6.33
2024-02-16T16:32:37.215Z,6.34
2024-02-16T16:35:07.818Z,6.39
2024-02-16T16:37:35.769Z,6.44
2024-02-16T16:40:03.948Z,6.47
2024-02-16T16:42:32.920Z,6.48
2024-02-16T16:45:00.938Z,6.53
2024-02-16T16:47:29.803Z,6.57
2024-02-16T16:49:58.200Z,6.56
2024-02-16T16:52:27.471Z,6.58
2024-02-16T16:54:55.400Z,6.59
2024-02-16T16:57:23.330Z,6.57
2024-02-16T16:59:51.244Z,6.58
2024-02-16T17:02:19.079Z,6.52
2024-02-16T17:04:47.082Z,6.56
2024-02-16T17:07:19.053Z,6.53
2024-02-16T17:09:48.405Z,6.53
2024-02-16T17:12:17.352Z,6.51
2024-02-16T17:14:45.185Z,6.54
2024-02-16T17:17:13.000Z,6.48
2024-02-16T17:19:40.885Z,6.50
2024-02-16T17:22:08.847Z,6.51
2024-02-16T17:24:36.814Z,6.52
2024-02-16T17:27:06.905Z,6.50
2024-02-16T17:29:35.126Z,6.48
2024-02-16T17:32:02.905Z,6.43
2024-02-16T17:34:30.881Z,6.43
2024-02-16T17:36:59.481Z,6.37
2024-02-16T17:39:27.501Z,6.34
2024-02-16T17:41:56.026Z,6.36
2024-02-16T17:44:25.273Z,6.38
2024-02-16T17:46:53.125Z,6.34
2024-02-16T17:49:21.029Z,6.33
2024-02-16T17:51:49.117Z,6.30
2024-02-16T17:54:17.443Z,6.33
2024-02-16T17:56:45.314Z,6.28
2024-02-16T17:59:13.249Z,6.29
2024-02-16T18:01:43.424Z,6.26
2024-02-16T18:04:11.301Z,6.25
2024-02-16T18:06:43.100Z,6.22
2024-02-16T18:09:12.855Z,6.16
2024-02-16T18:11:41.075Z,6.17
2024-02-16T18:14:10.444Z,6.19
2024-02-16T18:16:38.241Z,6.15
2024-02-16T18:19:08.173Z,6.12
2024-02-16T18:21:36.583Z,6.11
2024-02-16T18:24:04.928Z,6.11
2024-02-16T18:26:35.072Z,6.15
2024-02-16T18:29:02.900Z,6.14
2024-02-16T18:31:31.936Z,6.10
2024-02-16T18:34:00.084Z,6.08
2024-02-16T18:36:31.733Z,6.06
2024-02-16T18:39:00.435Z,6.03
2024-02-16T18:41:28.371Z,6.02
2024-02-16T18:43:56.272Z,6.00
2024-02-16T18:46:24.135Z,5.99
2024-02-16T18:48:52.232Z,5.97
2024-02-16T18:51:20.463Z,5.95
2024-02-16T18:53:49.832Z,5.89
2024-02-16T18:56:18.744Z,5.87
2024-02-16T18:58:46.787Z,5.90
2024-02-16T19:01:19.195Z,5.85
2024-02-16T19:03:47.594Z,5.83
2024-02-16T19:06:15.415Z,5.89
2024-02-16T19:08:45.829Z,5.90
2024-02-16T19:11:15.075Z,5.92
2024-02-16T19:13:43.450Z,5.92
2024-02-16T19:16:11.340Z,5.91
2024-02-16T19:18:39.413Z,5.93
2024-02-16T19:21:08.890Z,5.96
2024-02-16T19:23:37.269Z,5.97
2024-02-16T19:26:06.824Z,5.95
2024-02-16T19:28:39.652Z,5.99
2024-02-16T19:31:09.404Z,5.94
2024-02-16T19:33:37.693Z,5.97
2024-02-16T19:36:07.269Z,5.98
2024-02-16T19:38:36.923Z,5.94
2024-02-16T19:41:05.334Z,5.87
2024-02-16T19:43:33.448Z,5.89
2024-02-16T19:46:03.932Z,5.88
2024-02-16T19:48:32.781Z,5.83
2024-02-16T19:51:01.368Z,5.83
2024-02-16T19:53:29.572Z,5.83
2024-02-16T19:55:57.764Z,5.88
2024-02-16T19:58:25.965Z,5.89
2024-02-16T20:00:54.067Z,5.90
2024-02-16T20:03:24.596Z,5.92
2024-02-16T20:05:53.565Z,5.90
2024-02-16T20:08:22.469Z,5.90
2024-02-16T20:10:50.382Z,5.86
2024-02-16T20:13:18.372Z,5.88
2024-02-16T20:15:46.276Z,5.93
2024-02-16T20:18:18.685Z,5.92
2024-02-16T20:20:48.261Z,5.92
2024-02-16T20:23:18.024Z,5.93
2024-02-16T20:25:47.447Z,5.90
2024-02-16T20:28:15.271Z,5.92
2024-02-16T20:30:43.169Z,5.96
2024-02-16T20:33:11.184Z,5.97
2024-02-16T20:35:39.315Z,6.02
2024-02-16T20:38:08.566Z,6.01
2024-02-16T20:40:36.445Z,6.00
2024-02-16T20:43:04.280Z,6.03
2024-02-16T20:45:32.291Z,6.02
2024-02-16T20:48:01.108Z,6.05
2024-02-16T20:50:29.578Z,6.08
2024-02-16T20:52:57.466Z,6.10
2024-02-16T20:55:26.899Z,6.09
2024-02-16T20:57:54.793Z,6.08
2024-02-16T21:00:23.905Z,6.09
2024-02-16T21:02:54.245Z,6.11
2024-02-16T21:05:22.739Z,6.18
2024-02-16T21:07:50.561Z,6.18
2024-02-16T21:10:18.974Z,6.21
2024-02-16T21:12:48.207Z,6.22
2024-02-16T21:15:16.557Z,6.17
2024-02-16T21:17:44.542Z,6.23
2024-02-16T21:20:12.913Z,6.25
2024-02-16T21:22:41.044Z,6.25
2024-02-16T21:25:10.153Z,6.23
2024-02-16T21:27:38.211Z,6.26
2024-02-16T21:30:08.937Z,6.27
2024-02-16T21:32:36.856Z,6.27
2024-02-16T21:35:05.127Z,6.28
2024-02-16T21:37:33.208Z,6.23
2024-02-16T21:40:01.003Z,6.28
2024-02-16T21:42:28.960Z,6.29
2024-02-16T21:44:56.821Z,6.29
2024-02-16T21:47:25.990Z,6.30
2024-02-16T21:49:53.900Z,6.27
2024-02-16T21:52:21.850Z,6.26
2024-02-16T21:54:49.771Z,6.21
2024-02-16T21:57:17.636Z,6.23
2024-02-16T21:59:45.485Z,6.25
2024-02-16T22:02:13.936Z,6.31
2024-02-16T22:04:43.881Z,6.24
2024-02-16T22:07:12.427Z,6.28
2024-02-16T22:09:40.381Z,6.28
2024-02-16T22:12:08.905Z,6.34
2024-02-16T22:14:36.928Z,6.36
2024-02-16T22:17:05.660Z,6.30
2024-02-16T22:19:33.551Z,6.33
2024-02-16T22:22:04.282Z,6.32
2024-02-16T22:24:32.279Z,6.36
2024-02-16T22:27:00.176Z,6.35
2024-02-16T22:29:28.400Z,6.34
2024-02-16T22:32:04.091Z,6.35
2024-02-16T22:34:36.538Z,6.37
2024-02-16T22:37:05.865Z,6.37
2024-02-16T22:39:33.778Z,6.36
2024-02-16T22:42:01.686Z,6.35
2024-02-16T22:44:30.358Z,6.32
2024-02-16T22:46:58.210Z,6.34
2024-02-16T22:49:26.165Z,6.37
2024-02-16T22:51:54.421Z,6.32
2024-02-16T22:54:23.748Z,6.33
2024-02-16T22:56:51.810Z,6.34
2024-02-16T22:59:19.613Z,6.35
2024-02-16T23:01:47.498Z,6.36
2024-02-16T23:04:15.405Z,6.33
2024-02-16T23:06:43.554Z,6.31
2024-02-16T23:09:13.104Z,6.28
2024-02-16T23:11:45.086Z,6.37
2024-02-16T23:14:12.928Z,6.35
2024-02-16T23:16:40.893Z,6.24
2024-02-16T23:19:08.881Z,6.14
2024-02-16T23:21:36.813Z,6.13
2024-02-16T23:24:05.116Z,6.15
2024-02-16T23:26:32.963Z,6.09
2024-02-16T23:29:02.133Z,6.03
2024-02-16T23:31:30.818Z,5.99
2024-02-16T23:33:58.865Z,5.95
2024-02-16T23:36:26.800Z,5.89
2024-02-16T23:38:55.464Z,5.83
2024-02-16T23:41:24.990Z,5.79
2024-02-16T23:43:55.709Z,5.77
2024-02-16T23:46:26.387Z,5.66
2024-02-16T23:48:54.330Z,5.66
2024-02-16T23:51:22.255Z,5.58
2024-02-16T23:53:50.314Z,5.57
2024-02-16T23:56:18.182Z,5.53
2024-02-16T23:58:46.093Z,5.51
